sensor_id;sensor_type;location;lat;lon;timestamp;pressure;altitude;pressure_sealevel;temperature;humidity
48035;BME280;33812;46.480;6.834;2024-01-25T00:03:38;95167.63;;;21.41;43.93
48035;BME280;33812;46.480;6.834;2024-01-25T00:07:46;95138.81;;;21.38;44.00
48035;BME280;33812;46.480;6.834;2024-01-25T00:11:48;95139.97;;;21.41;43.86
48035;BME280;33812;46.480;6.834;2024-01-25T00:15:51;95131.31;;;21.39;43.96
48035;BME280;33812;46.480;6.834;2024-01-25T00:19:53;95140.00;;;21.37;43.84
48035;BME280;33812;46.480;6.834;2024-01-25T00:23:55;95142.78;;;21.37;43.88
48035;BME280;33812;46.480;6.834;2024-01-25T00:27:57;95133.69;;;21.37;43.69
48035;BME280;33812;46.480;6.834;2024-01-25T00:32:00;95136.84;;;21.35;43.81
48035;BME280;33812;46.480;6.834;2024-01-25T00:36:02;95138.81;;;21.35;43.80
48035;BME280;33812;46.480;6.834;2024-01-25T00:40:05;95126.59;;;21.36;43.80
48035;BME280;33812;46.480;6.834;2024-01-25T00:44:08;95115.53;;;21.36;43.80
48035;BME280;33812;46.480;6.834;2024-01-25T00:48:12;95112.38;;;21.34;43.76
48035;BME280;33812;46.480;6.834;2024-01-25T00:52:14;95108.41;;;21.35;43.66
48035;BME280;33812;46.480;6.834;2024-01-25T00:56:17;95106.84;;;21.34;43.59
48035;BME280;33812;46.480;6.834;2024-01-25T01:00:20;95104.09;;;21.34;43.69
48035;BME280;33812;46.480;6.834;2024-01-25T01:04:24;95100.53;;;21.33;43.53
48035;BME280;33812;46.480;6.834;2024-01-25T01:08:26;95097.75;;;21.33;43.53
48035;BME280;33812;46.480;6.834;2024-01-25T01:12:28;95098.97;;;21.32;43.44
48035;BME280;33812;46.480;6.834;2024-01-25T01:16:30;95103.28;;;21.33;43.34
48035;BME280;33812;46.480;6.834;2024-01-25T01:20:35;95102.53;;;21.33;43.47
48035;BME280;33812;46.480;6.834;2024-01-25T01:24:36;95105.28;;;21.33;43.40
48035;BME280;33812;46.480;6.834;2024-01-25T01:28:38;95103.28;;;21.33;43.45
48035;BME280;33812;46.480;6.834;2024-01-25T01:32:40;95097.00;;;21.33;43.45
48035;BME280;33812;46.480;6.834;2024-01-25T01:36:43;95102.88;;;21.35;43.22
48035;BME280;33812;46.480;6.834;2024-01-25T01:40:45;95106.06;;;21.33;43.30
48035;BME280;33812;46.480;6.834;2024-01-25T01:44:47;95104.88;;;21.34;43.21
48035;BME280;33812;46.480;6.834;2024-01-25T01:48:48;95104.50;;;21.32;43.34
48035;BME280;33812;46.480;6.834;2024-01-25T01:52:52;95109.63;;;21.34;43.32
48035;BME280;33812;46.480;6.834;2024-01-25T01:56:55;95106.06;;;21.33;43.12
48035;BME280;33812;46.480;6.834;2024-01-25T02:00:57;95104.88;;;21.34;43.06
48035;BME280;33812;46.480;6.834;2024-01-25T02:05:00;95110.41;;;21.34;43.13
48035;BME280;33812;46.480;6.834;2024-01-25T02:09:03;95114.34;;;21.33;43.11
48035;BME280;33812;46.480;6.834;2024-01-25T02:13:06;95116.34;;;21.33;43.02
48035;BME280;33812;46.480;6.834;2024-01-25T02:17:07;95114.75;;;21.32;43.03
48035;BME280;33812;46.480;6.834;2024-01-25T02:21:09;95109.22;;;21.32;43.17
48035;BME280;33812;46.480;6.834;2024-01-25T02:25:12;95103.69;;;21.32;43.12
48035;BME280;33812;46.480;6.834;2024-01-25T02:29:14;95111.59;;;21.33;43.08
48035;BME280;33812;46.480;6.834;2024-01-25T02:33:16;95107.25;;;21.32;43.18
48035;BME280;33812;46.480;6.834;2024-01-25T02:37:17;95102.91;;;21.31;42.98
48035;BME280;33812;46.480;6.834;2024-01-25T02:41:21;95098.16;;;21.32;43.13
48035;BME280;33812;46.480;6.834;2024-01-25T02:45:24;95096.19;;;21.32;43.02
48035;BME280;33812;46.480;6.834;2024-01-25T02:49:27;95092.63;;;21.32;43.01
48035;BME280;33812;46.480;6.834;2024-01-25T02:53:29;95089.50;;;21.30;43.12
48035;BME280;33812;46.480;6.834;2024-01-25T02:57:32;95087.09;;;21.32;42.88
48035;BME280;33812;46.480;6.834;2024-01-25T03:01:42;95095.41;;;21.32;43.04
48035;BME280;33812;46.480;6.834;2024-01-25T03:05:44;95093.84;;;21.31;42.75
48035;BME280;33812;46.480;6.834;2024-01-25T03:09:45;95087.94;;;21.29;42.83
48035;BME280;33812;46.480;6.834;2024-01-25T03:13:49;95078.84;;;21.28;42.77
48035;BME280;33812;46.480;6.834;2024-01-25T03:17:50;95078.84;;;21.28;42.86
48035;BME280;33812;46.480;6.834;2024-01-25T03:21:52;95082.81;;;21.27;42.63
48035;BME280;33812;46.480;6.834;2024-01-25T03:25:54;95075.31;;;21.28;42.91
48035;BME280;33812;46.480;6.834;2024-01-25T03:29:57;95068.97;;;21.27;42.86
48035;BME280;33812;46.480;6.834;2024-01-25T03:34:00;95069.78;;;21.28;42.84
48035;BME280;33812;46.480;6.834;2024-01-25T03:38:02;95072.53;;;21.28;42.78
48035;BME280;33812;46.480;6.834;2024-01-25T03:42:04;95073.72;;;21.26;42.68
48035;BME280;33812;46.480;6.834;2024-01-25T03:46:07;95081.22;;;21.26;42.75
48035;BME280;33812;46.480;6.834;2024-01-25T03:50:09;95079.25;;;21.26;42.60
48035;BME280;33812;46.480;6.834;2024-01-25T03:54:11;95067.38;;;21.26;42.76
48035;BME280;33812;46.480;6.834;2024-01-25T03:58:13;95078.44;;;21.26;42.66
48035;BME280;33812;46.480;6.834;2024-01-25T04:02:16;95074.91;;;21.25;42.75
48035;BME280;33812;46.480;6.834;2024-01-25T04:06:18;95072.16;;;21.25;42.70
48035;BME280;33812;46.480;6.834;2024-01-25T04:10:20;95074.53;;;21.23;42.59
48035;BME280;33812;46.480;6.834;2024-01-25T04:14:23;95072.16;;;21.25;42.74
48035;BME280;33812;46.480;6.834;2024-01-25T04:18:26;95062.28;;;21.24;42.63
48035;BME280;33812;46.480;6.834;2024-01-25T04:22:29;95063.47;;;21.23;42.65
48035;BME280;33812;46.480;6.834;2024-01-25T04:26:32;95067.81;;;21.24;42.63
48035;BME280;33812;46.480;6.834;2024-01-25T04:30:33;95060.72;;;21.23;42.58
48035;BME280;33812;46.480;6.834;2024-01-25T04:34:36;95057.16;;;21.23;42.66
48035;BME280;33812;46.480;6.834;2024-01-25T04:38:38;95057.94;;;21.23;42.63
48035;BME280;33812;46.480;6.834;2024-01-25T04:42:40;95055.59;;;21.22;42.62
48035;BME280;33812;46.480;6.834;2024-01-25T04:46:42;95054.38;;;21.23;42.56
48035;BME280;33812;46.480;6.834;2024-01-25T04:50:45;95057.16;;;21.23;42.55
48035;BME280;33812;46.480;6.834;2024-01-25T04:54:47;95056.38;;;21.22;42.47
48035;BME280;33812;46.480;6.834;2024-01-25T04:58:48;95053.25;;;21.20;42.63
48035;BME280;33812;46.480;6.834;2024-01-25T05:02:50;95047.72;;;21.20;42.48
48035;BME280;33812;46.480;6.834;2024-01-25T05:06:53;95044.94;;;21.20;42.59
48035;BME280;33812;46.480;6.834;2024-01-25T05:10:55;95046.50;;;21.21;42.62
48035;BME280;33812;46.480;6.834;2024-01-25T05:14:58;95049.28;;;21.21;42.44
48035;BME280;33812;46.480;6.834;2024-01-25T05:18:59;95047.72;;;21.20;42.55
48035;BME280;33812;46.480;6.834;2024-01-25T05:23:03;95049.69;;;21.20;42.50
48035;BME280;33812;46.480;6.834;2024-01-25T05:27:05;95048.13;;;21.19;42.39
48035;BME280;33812;46.480;6.834;2024-01-25T05:31:07;95049.69;;;21.20;42.42
48035;BME280;33812;46.480;6.834;2024-01-25T05:35:13;95050.88;;;21.19;42.50
48035;BME280;33812;46.480;6.834;2024-01-25T05:39:16;95057.19;;;21.19;42.46
48035;BME280;33812;46.480;6.834;2024-01-25T05:43:18;95052.44;;;21.20;42.48
48035;BME280;33812;46.480;6.834;2024-01-25T05:47:20;95050.47;;;21.20;42.29
48035;BME280;33812;46.480;6.834;2024-01-25T05:51:21;95065.47;;;21.19;42.30
48035;BME280;33812;46.480;6.834;2024-01-25T05:55:24;95051.66;;;21.19;42.27
48035;BME280;33812;46.480;6.834;2024-01-25T05:59:26;95057.94;;;21.23;42.22
48035;BME280;33812;46.480;6.834;2024-01-25T06:03:28;95063.47;;;21.23;42.20
48035;BME280;33812;46.480;6.834;2024-01-25T06:07:30;95078.84;;;21.24;42.24
48035;BME280;33812;46.480;6.834;2024-01-25T06:11:33;95074.13;;;21.25;41.97
48035;BME280;33812;46.480;6.834;2024-01-25T06:15:35;95075.31;;;21.28;42.33
48035;BME280;33812;46.480;6.834;2024-01-25T06:19:37;95076.84;;;21.32;42.49
48035;BME280;33812;46.480;6.834;2024-01-25T06:23:39;95079.63;;;21.29;42.63
48035;BME280;33812;46.480;6.834;2024-01-25T06:27:43;95074.88;;;21.33;42.59
48035;BME280;33812;46.480;6.834;2024-01-25T06:31:45;95081.13;;;21.37;42.60
48035;BME280;33812;46.480;6.834;2024-01-25T06:35:46;95078.44;;;21.30;42.06
48035;BME280;33812;46.480;6.834;2024-01-25T06:39:48;95080.44;;;21.25;41.80
48035;BME280;33812;46.480;6.834;2024-01-25T06:43:51;95078.31;;;21.44;41.93
48035;BME280;33812;46.480;6.834;2024-01-25T06:47:53;95082.91;;;21.62;40.48
48035;BME280;33812;46.480;6.834;2024-01-25T06:51:55;95090.78;;;21.64;40.45
48035;BME280;33812;46.480;6.834;2024-01-25T06:55:56;95088.50;;;21.55;40.83
48035;BME280;33812;46.480;6.834;2024-01-25T07:00:00;95088.44;;;21.62;40.27
48035;BME280;33812;46.480;6.834;2024-01-25T07:04:02;95094.34;;;21.64;39.44
48035;BME280;33812;46.480;6.834;2024-01-25T07:08:04;95089.72;;;21.54;40.66
48035;BME280;33812;46.480;6.834;2024-01-25T07:12:08;95088.69;;;21.33;41.09
48035;BME280;33812;46.480;6.834;2024-01-25T07:16:12;95086.31;;;21.31;41.26
48035;BME280;33812;46.480;6.834;2024-01-25T07:20:13;95087.91;;;21.32;41.76
48035;BME280;33812;46.480;6.834;2024-01-25T07:24:18;95080.00;;;21.31;41.45
48035;BME280;33812;46.480;6.834;2024-01-25T07:28:20;95086.72;;;21.30;41.47
48035;BME280;33812;46.480;6.834;2024-01-25T07:32:23;95087.94;;;21.29;41.36
48035;BME280;33812;46.480;6.834;2024-01-25T07:36:25;95083.19;;;21.29;41.35
48035;BME280;33812;46.480;6.834;2024-01-25T07:40:28;95080.00;;;21.34;41.52
48035;BME280;33812;46.480;6.834;2024-01-25T07:44:29;95083.16;;;21.33;41.53
48035;BME280;33812;46.480;6.834;2024-01-25T07:48:34;95078.75;;;21.39;41.45
48035;BME280;33812;46.480;6.834;2024-01-25T07:52:35;95075.22;;;21.35;41.38
48035;BME280;33812;46.480;6.834;2024-01-25T07:56:38;95068.09;;;21.37;41.26
48035;BME280;33812;46.480;6.834;2024-01-25T08:00:41;95072.03;;;21.40;41.15
48035;BME280;33812;46.480;6.834;2024-01-25T08:04:45;95065.28;;;21.45;41.16
48035;BME280;33812;46.480;6.834;2024-01-25T08:08:50;95068.78;;;21.49;41.13
48035;BME280;33812;46.480;6.834;2024-01-25T08:12:52;95075.91;;;21.50;41.43
48035;BME280;33812;46.480;6.834;2024-01-25T08:16:55;95075.50;;;21.52;41.11
48035;BME280;33812;46.480;6.834;2024-01-25T08:20:59;95082.97;;;21.55;41.38
48035;BME280;33812;46.480;6.834;2024-01-25T08:25:01;95082.97;;;21.55;41.46
48035;BME280;33812;46.480;6.834;2024-01-25T08:29:03;95082.53;;;21.60;41.16
48035;BME280;33812;46.480;6.834;2024-01-25T08:33:04;95081.63;;;21.70;40.94
48035;BME280;33812;46.480;6.834;2024-01-25T08:37:07;95082.81;;;21.73;40.79
48035;BME280;33812;46.480;6.834;2024-01-25T08:41:09;95079.63;;;21.74;40.83
48035;BME280;33812;46.480;6.834;2024-01-25T08:45:11;95070.13;;;21.79;40.66
48035;BME280;33812;46.480;6.834;2024-01-25T08:49:14;95082.72;;;21.84;40.45
48035;BME280;33812;46.480;6.834;2024-01-25T08:53:17;95079.19;;;21.83;40.59
48035;BME280;33812;46.480;6.834;2024-01-25T08:57:18;95075.66;;;21.79;40.67
48035;BME280;33812;46.480;6.834;2024-01-25T09:01:20;95064.53;;;21.86;40.35
48035;BME280;33812;46.480;6.834;2024-01-25T09:05:22;95066.03;;;21.91;40.39
48035;BME280;33812;46.480;6.834;2024-01-25T09:09:26;95050.22;;;21.92;40.37
48035;BME280;33812;46.480;6.834;2024-01-25T09:13:28;95047.84;;;21.94;40.30
48035;BME280;33812;46.480;6.834;2024-01-25T09:17:32;95043.91;;;21.91;40.54
48035;BME280;33812;46.480;6.834;2024-01-25T09:21:34;95034.41;;;21.92;40.51
48035;BME280;33812;46.480;6.834;2024-01-25T09:25:37;95037.94;;;21.93;40.23
48035;BME280;33812;46.480;6.834;2024-01-25T09:29:39;95039.94;;;21.92;40.41
48035;BME280;33812;46.480;6.834;2024-01-25T09:33:41;95037.94;;;21.93;40.38
48035;BME280;33812;46.480;6.834;2024-01-25T09:37:42;95021.75;;;21.91;40.41
48035;BME280;33812;46.480;6.834;2024-01-25T09:41:46;95024.91;;;21.93;40.33
48035;BME280;33812;46.480;6.834;2024-01-25T09:45:48;95021.75;;;21.91;40.49
48035;BME280;33812;46.480;6.834;2024-01-25T09:49:54;95015.03;;;21.92;40.41
48035;BME280;33812;46.480;6.834;2024-01-25T09:53:56;95022.50;;;21.95;40.34
48035;BME280;33812;46.480;6.834;2024-01-25T09:58:00;95024.09;;;21.93;40.50
48035;BME280;33812;46.480;6.834;2024-01-25T10:02:02;95026.88;;;21.93;40.58
48035;BME280;33812;46.480;6.834;2024-01-25T10:06:05;95022.94;;;21.94;40.40
48035;BME280;33812;46.480;6.834;2024-01-25T10:10:08;95026.47;;;21.94;40.71
48035;BME280;33812;46.480;6.834;2024-01-25T10:14:11;95020.13;;;21.97;40.52
48035;BME280;33812;46.480;6.834;2024-01-25T10:18:14;95022.47;;;21.99;40.57
48035;BME280;33812;46.480;6.834;2024-01-25T10:22:18;95026.00;;;22.00;40.47
48035;BME280;33812;46.480;6.834;2024-01-25T10:26:20;95026.75;;;22.04;40.61
48035;BME280;33812;46.480;6.834;2024-01-25T10:30:23;95022.84;;;22.01;40.89
48035;BME280;33812;46.480;6.834;2024-01-25T10:34:26;95020.81;;;22.05;40.52
48035;BME280;33812;46.480;6.834;2024-01-25T10:38:30;95005.00;;;22.06;40.68
48035;BME280;33812;46.480;6.834;2024-01-25T10:42:32;94988.81;;;22.04;40.55
48035;BME280;33812;46.480;6.834;2024-01-25T10:46:37;95004.16;;;22.09;40.83
48035;BME280;33812;46.480;6.834;2024-01-25T10:50:39;95004.13;;;22.13;40.70
48035;BME280;33812;46.480;6.834;2024-01-25T10:54:41;94999.75;;;22.15;40.56
48035;BME280;33812;46.480;6.834;2024-01-25T10:58:43;95005.38;;;22.08;41.01
48035;BME280;33812;46.480;6.834;2024-01-25T11:02:46;94993.47;;;22.11;40.94
48035;BME280;33812;46.480;6.834;2024-01-25T11:06:50;94977.22;;;22.13;40.90
48035;BME280;33812;46.480;6.834;2024-01-25T11:10:52;94970.84;;;22.16;41.02
48035;BME280;33812;46.480;6.834;2024-01-25T11:14:54;94963.84;;;22.08;41.12
48035;BME280;33812;46.480;6.834;2024-01-25T11:18:58;94969.63;;;22.17;41.10
48035;BME280;33812;46.480;6.834;2024-01-25T11:23:06;94963.81;;;22.12;41.28
48035;BME280;33812;46.480;6.834;2024-01-25T11:27:10;94949.97;;;22.12;41.36
48035;BME280;33812;46.480;6.834;2024-01-25T11:31:12;94949.59;;;22.09;41.29
48035;BME280;33812;46.480;6.834;2024-01-25T11:35:15;94956.63;;;22.14;41.26
48035;BME280;33812;46.480;6.834;2024-01-25T11:39:18;94950.69;;;22.16;41.34
48035;BME280;33812;46.480;6.834;2024-01-25T11:43:19;94949.06;;;22.18;41.41
48035;BME280;33812;46.480;6.834;2024-01-25T11:47:21;94949.44;;;22.20;41.33
48035;BME280;33812;46.480;6.834;2024-01-25T11:51:24;94941.59;;;22.15;41.58
48035;BME280;33812;46.480;6.834;2024-01-25T11:55:26;94928.09;;;22.17;41.51
48035;BME280;33812;46.480;6.834;2024-01-25T11:59:28;94926.09;;;22.21;41.50
48035;BME280;33812;46.480;6.834;2024-01-25T12:03:30;94915.44;;;22.20;41.79
48035;BME280;33812;46.480;6.834;2024-01-25T12:07:33;94915.00;;;22.21;41.60
48035;BME280;33812;46.480;6.834;2024-01-25T12:11:36;94899.94;;;22.22;41.66
48035;BME280;33812;46.480;6.834;2024-01-25T12:15:38;94897.13;;;22.26;41.66
48035;BME280;33812;46.480;6.834;2024-01-25T12:19:40;94914.59;;;22.23;41.62
48035;BME280;33812;46.480;6.834;2024-01-25T12:23:43;94902.72;;;22.22;41.66
48035;BME280;33812;46.480;6.834;2024-01-25T12:27:45;94897.19;;;22.22;41.48
48035;BME280;33812;46.480;6.834;2024-01-25T12:31:49;94885.75;;;22.20;41.74
48035;BME280;33812;46.480;6.834;2024-01-25T12:35:51;94887.69;;;22.24;41.67
48035;BME280;33812;46.480;6.834;2024-01-25T12:39:55;94885.28;;;22.26;41.82
48035;BME280;33812;46.480;6.834;2024-01-25T12:44:00;94885.91;;;22.37;41.86
48035;BME280;33812;46.480;6.834;2024-01-25T12:48:03;94885.91;;;22.37;41.74
48035;BME280;33812;46.480;6.834;2024-01-25T12:52:07;94881.09;;;22.41;41.90
48035;BME280;33812;46.480;6.834;2024-01-25T12:56:10;94876.31;;;22.42;42.06
48035;BME280;33812;46.480;6.834;2024-01-25T13:00:13;94874.56;;;22.55;40.39
48035;BME280;33812;46.480;6.834;2024-01-25T13:04:15;94869.06;;;22.52;40.05
48035;BME280;33812;46.480;6.834;2024-01-25T13:08:16;94869.97;;;22.45;39.71
48035;BME280;33812;46.480;6.834;2024-01-25T13:12:19;94856.59;;;22.40;39.12
48035;BME280;33812;46.480;6.834;2024-01-25T13:16:21;94855.06;;;22.35;38.55
48035;BME280;33812;46.480;6.834;2024-01-25T13:20:23;94844.16;;;22.24;38.76
48035;BME280;33812;46.480;6.834;2024-01-25T13:24:25;94844.22;;;22.20;38.16
48035;BME280;33812;46.480;6.834;2024-01-25T13:28:28;94840.25;;;22.21;37.89
48035;BME280;33812;46.480;6.834;2024-01-25T13:32:30;94834.72;;;22.21;36.93
48035;BME280;33812;46.480;6.834;2024-01-25T13:36:32;94833.50;;;22.22;38.33
48035;BME280;33812;46.480;6.834;2024-01-25T13:40:34;94830.06;;;22.15;37.87
48035;BME280;33812;46.480;6.834;2024-01-25T13:44:37;94833.25;;;22.13;38.46
48035;BME280;33812;46.480;6.834;2024-01-25T13:48:40;94828.19;;;22.08;37.97
48035;BME280;33812;46.480;6.834;2024-01-25T13:52:41;94826.13;;;22.12;38.11
48035;BME280;33812;46.480;6.834;2024-01-25T13:56:43;94832.31;;;22.24;38.42
48035;BME280;33812;46.480;6.834;2024-01-25T14:00:46;94829.44;;;22.31;38.00
48035;BME280;33812;46.480;6.834;2024-01-25T14:04:48;94829.72;;;22.37;37.88
48035;BME280;33812;46.480;6.834;2024-01-25T14:08:51;94829.59;;;22.44;37.72
48035;BME280;33812;46.480;6.834;2024-01-25T14:12:53;94825.44;;;22.32;37.53
48035;BME280;33812;46.480;6.834;2024-01-25T14:16:56;94825.69;;;22.41;38.47
48035;BME280;33812;46.480;6.834;2024-01-25T14:20:58;94823.69;;;22.42;38.02
48035;BME280;33812;46.480;6.834;2024-01-25T14:25:00;94816.59;;;22.41;38.16
48035;BME280;33812;46.480;6.834;2024-01-25T14:29:01;94803.66;;;22.34;37.53
48035;BME280;33812;46.480;6.834;2024-01-25T14:33:05;94801.53;;;22.18;37.82
48035;BME280;33812;46.480;6.834;2024-01-25T14:37:06;94813.88;;;22.13;37.38
48035;BME280;33812;46.480;6.834;2024-01-25T14:41:08;94805.09;;;22.18;37.93
48035;BME280;33812;46.480;6.834;2024-01-25T14:45:10;94814.06;;;22.26;37.86
48035;BME280;33812;46.480;6.834;2024-01-25T14:49:14;94801.25;;;22.36;38.10
48035;BME280;33812;46.480;6.834;2024-01-25T14:53:16;94801.13;;;22.43;38.00
48035;BME280;33812;46.480;6.834;2024-01-25T14:57:19;94806.16;;;22.49;38.26
48035;BME280;33812;46.480;6.834;2024-01-25T15:01:21;94802.56;;;22.52;38.61
48035;BME280;33812;46.480;6.834;2024-01-25T15:05:30;94809.25;;;22.54;38.71
48035;BME280;33812;46.480;6.834;2024-01-25T15:09:31;94813.59;;;22.55;38.83
48035;BME280;33812;46.480;6.834;2024-01-25T15:13:33;94812.38;;;22.56;39.29
48035;BME280;33812;46.480;6.834;2024-01-25T15:17:35;94801.38;;;22.53;39.65
48035;BME280;33812;46.480;6.834;2024-01-25T15:21:38;94798.97;;;22.55;39.68
48035;BME280;33812;46.480;6.834;2024-01-25T15:25:41;94793.41;;;22.55;40.23
48035;BME280;33812;46.480;6.834;2024-01-25T15:29:42;94789.06;;;22.54;40.46
48035;BME280;33812;46.480;6.834;2024-01-25T15:33:44;94785.84;;;22.59;40.16
48035;BME280;33812;46.480;6.834;2024-01-25T15:37:48;94773.94;;;22.62;40.37
48035;BME280;33812;46.480;6.834;2024-01-25T15:41:49;94772.75;;;22.59;40.46
48035;BME280;33812;46.480;6.834;2024-01-25T15:45:53;94773.94;;;22.62;40.42
48035;BME280;33812;46.480;6.834;2024-01-25T15:49:54;94774.28;;;22.64;40.22
48035;BME280;33812;46.480;6.834;2024-01-25T15:53:58;94774.63;;;22.66;40.40
48035;BME280;33812;46.480;6.834;2024-01-25T15:58:00;94765.88;;;22.68;40.44
48035;BME280;33812;46.480;6.834;2024-01-25T16:02:03;94770.19;;;22.73;40.46
48035;BME280;33812;46.480;6.834;2024-01-25T16:06:05;94771.38;;;22.72;40.72
48035;BME280;33812;46.480;6.834;2024-01-25T16:10:09;94761.00;;;22.76;40.62
48035;BME280;33812;46.480;6.834;2024-01-25T16:14:11;94772.94;;;22.73;40.39
48035;BME280;33812;46.480;6.834;2024-01-25T16:18:13;94765.13;;;22.67;39.96
48035;BME280;33812;46.480;6.834;2024-01-25T16:22:14;94772.59;;;22.70;40.04
48035;BME280;33812;46.480;6.834;2024-01-25T16:26:18;94776.09;;;22.75;40.08
48035;BME280;33812;46.480;6.834;2024-01-25T16:30:19;94773.66;;;22.77;40.28
48035;BME280;33812;46.480;6.834;2024-01-25T16:34:21;94776.09;;;22.75;40.21
48035;BME280;33812;46.480;6.834;2024-01-25T16:38:23;94783.66;;;22.70;40.22
48035;BME280;33812;46.480;6.834;2024-01-25T16:42:28;94782.44;;;22.72;40.98
48035;BME280;33812;46.480;6.834;2024-01-25T16:46:30;94782.31;;;22.79;41.40
48035;BME280;33812;46.480;6.834;2024-01-25T16:55:16;94774.38;;;22.81;40.84
48035;BME280;33812;46.480;6.834;2024-01-25T16:59:21;94773.59;;;22.80;41.05
48035;BME280;33812;46.480;6.834;2024-01-25T17:03:23;94781.47;;;22.82;41.01
48035;BME280;33812;46.480;6.834;2024-01-25T17:07:24;94788.59;;;22.83;41.10
48035;BME280;33812;46.480;6.834;2024-01-25T17:11:29;94786.31;;;22.78;40.79
48035;BME280;33812;46.480;6.834;2024-01-25T17:15:50;94793.41;;;22.79;41.11
48035;BME280;33812;46.480;6.834;2024-01-25T17:19:52;94790.63;;;22.79;40.84
48035;BME280;33812;46.480;6.834;2024-01-25T17:23:54;94800.53;;;22.80;40.73
48035;BME280;33812;46.480;6.834;2024-01-25T17:27:57;94809.19;;;22.82;40.61
48035;BME280;33812;46.480;6.834;2024-01-25T17:32:04;94809.97;;;22.82;40.55
48035;BME280;33812;46.480;6.834;2024-01-25T17:36:08;94808.91;;;22.76;40.48
48035;BME280;33812;46.480;6.834;2024-01-25T17:40:16;94813.19;;;22.81;40.77
48035;BME280;33812;46.480;6.834;2024-01-25T17:44:18;94817.88;;;22.84;40.73
48035;BME280;33812;46.480;6.834;2024-01-25T17:48:22;94826.66;;;22.79;40.32
48035;BME280;33812;46.480;6.834;2024-01-25T17:52:31;94828.09;;;22.87;39.84
48035;BME280;33812;46.480;6.834;2024-01-25T17:56:36;94832.16;;;22.82;39.93
48035;BME280;33812;46.480;6.834;2024-01-25T18:00:50;94832.94;;;22.83;39.53
48035;BME280;33812;46.480;6.834;2024-01-25T18:04:55;94840.94;;;22.77;39.91
48035;BME280;33812;46.480;6.834;2024-01-25T18:09:06;94846.50;;;22.77;39.84
48035;BME280;33812;46.480;6.834;2024-01-25T18:13:08;94845.75;;;22.73;40.28
48035;BME280;33812;46.480;6.834;2024-01-25T18:17:11;94848.91;;;22.75;40.45
48035;BME280;33812;46.480;6.834;2024-01-25T18:21:16;94851.31;;;22.73;40.91
48035;BME280;33812;46.480;6.834;2024-01-25T18:25:17;94859.28;;;22.71;41.41
48035;BME280;33812;46.480;6.834;2024-01-25T18:29:19;94854.56;;;22.68;41.53
48035;BME280;33812;46.480;6.834;2024-01-25T18:33:27;94854.16;;;22.69;41.19
48035;BME280;33812;46.480;6.834;2024-01-25T18:37:33;94850.19;;;22.70;41.18
48035;BME280;33812;46.480;6.834;2024-01-25T18:41:35;94858.50;;;22.70;41.11
48035;BME280;33812;46.480;6.834;2024-01-25T18:45:39;94851.31;;;22.73;41.88
48035;BME280;33812;46.480;6.834;2024-01-25T18:49:44;94851.19;;;22.80;41.28
48035;BME280;33812;46.480;6.834;2024-01-25T18:53:48;94864.75;;;22.75;41.89
48035;BME280;33812;46.480;6.834;2024-01-25T18:57:50;94866.31;;;22.76;41.85
48035;BME280;33812;46.480;6.834;2024-01-25T19:01:54;94869.94;;;22.73;42.05
48035;BME280;33812;46.480;6.834;2024-01-25T19:05:57;94869.56;;;22.70;41.73
48035;BME280;33812;46.480;6.834;2024-01-25T19:10:01;94867.72;;;22.60;37.82
48035;BME280;33812;46.480;6.834;2024-01-25T19:14:02;94862.66;;;22.31;36.12
48035;BME280;33812;46.480;6.834;2024-01-25T19:18:04;94862.97;;;22.64;36.70
48035;BME280;33812;46.480;6.834;2024-01-25T19:22:06;94861.41;;;22.36;38.03
48035;BME280;33812;46.480;6.834;2024-01-25T19:26:09;94856.22;;;22.38;38.45
48035;BME280;33812;46.480;6.834;2024-01-25T19:30:12;94860.50;;;22.42;38.78
48035;BME280;33812;46.480;6.834;2024-01-25T19:34:15;94856.22;;;22.38;39.38
48035;BME280;33812;46.480;6.834;2024-01-25T19:38:18;94864.81;;;22.43;42.75
48035;BME280;33812;46.480;6.834;2024-01-25T19:42:21;94848.81;;;22.31;41.23
48035;BME280;33812;46.480;6.834;2024-01-25T19:46:23;94843.97;;;22.35;42.48
48035;BME280;33812;46.480;6.834;2024-01-25T19:50:26;94848.75;;;22.34;42.50
48035;BME280;33812;46.480;6.834;2024-01-25T19:54:27;94841.59;;;22.37;42.66
48035;BME280;33812;46.480;6.834;2024-01-25T19:58:32;94829.72;;;22.37;42.17
48035;BME280;33812;46.480;6.834;2024-01-25T20:02:34;94843.94;;;22.39;42.40
48035;BME280;33812;46.480;6.834;2024-01-25T20:06:37;94842.31;;;22.41;42.16
48035;BME280;33812;46.480;6.834;2024-01-25T20:10:40;94845.56;;;22.36;42.18
48035;BME280;33812;46.480;6.834;2024-01-25T20:14:44;94847.91;;;22.38;42.13
48035;BME280;33812;46.480;6.834;2024-01-25T20:18:47;94840.78;;;22.37;41.75
48035;BME280;33812;46.480;6.834;2024-01-25T20:22:48;94857.34;;;22.40;41.65
48035;BME280;33812;46.480;6.834;2024-01-25T20:26:50;94850.75;;;22.34;41.84
48035;BME280;33812;46.480;6.834;2024-01-25T20:30:54;94855.06;;;22.35;41.74
48035;BME280;33812;46.480;6.834;2024-01-25T20:34:55;94857.47;;;22.33;41.31
48035;BME280;33812;46.480;6.834;2024-01-25T20:38:57;94861.06;;;22.30;40.95
48035;BME280;33812;46.480;6.834;2024-01-25T20:43:00;94856.75;;;22.29;41.14
48035;BME280;33812;46.480;6.834;2024-01-25T20:47:03;94861.50;;;22.28;40.92
48035;BME280;33812;46.480;6.834;2024-01-25T20:51:05;94874.56;;;22.28;40.97
48035;BME280;33812;46.480;6.834;2024-01-25T20:55:08;94875.75;;;22.27;40.79
48035;BME280;33812;46.480;6.834;2024-01-25T20:59:09;94872.16;;;22.30;40.73
48035;BME280;33812;46.480;6.834;2024-01-25T21:03:13;94878.97;;;22.25;40.59
48035;BME280;33812;46.480;6.834;2024-01-25T21:07:16;94878.59;;;22.23;40.73
48035;BME280;33812;46.480;6.834;2024-01-25T21:11:18;94887.31;;;22.21;40.93
48035;BME280;33812;46.480;6.834;2024-01-25T21:15:22;94887.31;;;22.21;40.42
48035;BME280;33812;46.480;6.834;2024-01-25T21:19:25;94892.84;;;22.21;40.71
48035;BME280;33812;46.480;6.834;2024-01-25T21:23:27;94901.16;;;22.21;40.71
48035;BME280;33812;46.480;6.834;2024-01-25T21:27:28;94896.75;;;22.24;40.39
48035;BME280;33812;46.480;6.834;2024-01-25T21:31:30;94909.84;;;22.24;40.38